Time;durP1;ratioP1;P1;durP2;ratioP2;P2;SDS_P1;SDS_P2;PMS_P1;PMS_P2;Temp;Humidity;BMP_temperature;BMP_pressure;BME280_temperature;BME280_humidity;BME280_pressure;Samples;Min_cycle;Max_cycle;Signal;HPM_P1;HPM_P2
2022/05/02 00:01:34;;;;;;;6.20;2.90;;;;;;;;;;5061384;28;20032;-49
2022/05/02 00:03:59;;;;;;;3.85;2.50;;;;;;;;;;5082789;28;20108;-52
2022/05/02 00:06:25;;;;;;;7.15;2.90;;;;;;;;;;5074193;28;20403;-50
2022/05/02 00:08:51;;;;;;;4.85;2.50;;;;;;;;;;5069358;28;20031;-46
2022/05/02 00:11:17;;;;;;;5.07;2.83;;;;;;;;;;5068861;28;20032;-50
2022/05/02 00:13:43;;;;;;;4.30;2.25;;;;;;;;;;5068575;28;20472;-52
2022/05/02 00:16:09;;;;;;;4.93;2.88;;;;;;;;;;5068069;28;20086;-51
2022/05/02 00:18:35;;;;;;;7.68;2.63;;;;;;;;;;5064961;28;20074;-48
2022/05/02 00:21:01;;;;;;;4.00;2.40;;;;;;;;;;5068831;28;20519;-50
2022/05/02 00:23:29;;;;;;;4.18;3.00;;;;;;;;;;5065761;28;20078;-50
2022/05/02 00:25:55;;;;;;;5.30;2.88;;;;;;;;;;5069335;28;20035;-52
2022/05/02 00:28:21;;;;;;;4.38;2.85;;;;;;;;;;5064715;28;20052;-46
2022/05/02 00:30:47;;;;;;;5.30;2.83;;;;;;;;;;5072215;28;20021;-48
2022/05/02 00:33:13;;;;;;;5.80;2.80;;;;;;;;;;5066528;28;20115;-47
2022/05/02 00:35:39;;;;;;;5.80;3.28;;;;;;;;;;5069989;28;20078;-45
2022/05/02 00:38:05;;;;;;;4.38;2.70;;;;;;;;;;5066066;28;20036;-49
2022/05/02 00:40:32;;;;;;;4.57;3.10;;;;;;;;;;5067497;28;20016;-51
2022/05/02 00:42:58;;;;;;;4.32;2.55;;;;;;;;;;5064893;28;20025;-48
2022/05/02 00:45:24;;;;;;;4.95;3.00;;;;;;;;;;5060216;28;20078;-51
2022/05/02 00:47:51;;;;;;;3.78;2.63;;;;;;;;;;5065051;28;20037;-49
2022/05/02 00:50:18;;;;;;;3.20;2.08;;;;;;;;;;5068577;28;20394;-48
2022/05/02 00:52:44;;;;;;;4.93;3.25;;;;;;;;;;5063839;28;20166;-49
2022/05/02 00:55:10;;;;;;;4.07;2.80;;;;;;;;;;5062573;28;20102;-51
2022/05/02 00:57:36;;;;;;;4.22;2.58;;;;;;;;;;5073922;28;20041;-49
2022/05/02 01:00:03;;;;;;;4.22;2.65;;;;;;;;;;5065067;28;20098;-48
2022/05/02 01:02:29;;;;;;;3.45;2.50;;;;;;;;;;5061437;28;20111;-49
2022/05/02 01:04:55;;;;;;;4.88;3.00;;;;;;;;;;5075053;28;20028;-50
2022/05/02 01:07:21;;;;;;;6.53;2.85;;;;;;;;;;5078203;28;20024;-52
2022/05/02 01:09:49;;;;;;;4.00;2.80;;;;;;;;;;5068430;28;20043;-52
2022/05/02 01:12:16;;;;;;;6.22;3.10;;;;;;;;;;5060535;28;20038;-50
2022/05/02 01:14:44;;;;;;;3.83;2.47;;;;;;;;;;5069975;28;20031;-49
2022/05/02 01:17:10;;;;;;;5.93;2.50;;;;;;;;;;5062544;28;20590;-50
2022/05/02 01:19:36;;;;;;;4.15;2.50;;;;;;;;;;5071712;28;20024;-50
2022/05/02 01:22:03;;;;;;;3.92;2.60;;;;;;;;;;5069295;28;20436;-49
2022/05/02 01:24:36;;;;;;;6.22;2.83;;;;;;;;;;5063246;28;20036;-49
2022/05/02 01:27:03;;;;;;;5.60;2.72;;;;;;;;;;5077695;28;20475;-49
2022/05/02 01:29:31;;;;;;;4.70;2.88;;;;;;;;;;5069016;28;20111;-46
2022/05/02 01:31:57;;;;;;;7.53;2.92;;;;;;;;;;5055380;28;20060;-48
2022/05/02 01:34:23;;;;;;;6.03;2.88;;;;;;;;;;5065525;28;20105;-48
2022/05/02 01:36:49;;;;;;;4.63;2.72;;;;;;;;;;5077188;28;20033;-50
2022/05/02 01:39:15;;;;;;;7.53;2.97;;;;;;;;;;5066367;28;20103;-51
2022/05/02 01:41:41;;;;;;;5.05;3.30;;;;;;;;;;5070372;28;20111;-47
2022/05/02 01:44:07;;;;;;;6.20;3.17;;;;;;;;;;5065383;28;20453;-49
2022/05/02 01:46:33;;;;;;;3.72;2.40;;;;;;;;;;5064379;28;20043;-48
2022/05/02 01:49:00;;;;;;;6.28;2.80;;;;;;;;;;5088717;28;20064;-51
2022/05/02 01:51:26;;;;;;;4.65;2.67;;;;;;;;;;5067823;28;20498;-49
2022/05/02 01:53:52;;;;;;;6.70;3.33;;;;;;;;;;5064984;28;20158;-51
2022/05/02 01:56:18;;;;;;;5.20;3.10;;;;;;;;;;5068126;28;20021;-50
2022/05/02 01:58:44;;;;;;;4.38;2.75;;;;;;;;;;5086359;28;20054;-49
2022/05/02 02:01:10;;;;;;;4.97;2.97;;;;;;;;;;5069024;28;20027;-50
2022/05/02 02:03:36;;;;;;;4.55;3.00;;;;;;;;;;5071127;28;20052;-51
2022/05/02 02:06:02;;;;;;;5.80;2.60;;;;;;;;;;5082231;28;20028;-50
2022/05/02 02:08:29;;;;;;;4.25;3.05;;;;;;;;;;5067316;28;20089;-49
2022/05/02 02:11:06;;;;;;;3.80;2.65;;;;;;;;;;5076083;28;20020;-49
2022/05/02 02:13:32;;;;;;;5.57;3.17;;;;;;;;;;5071517;28;20578;-49
2022/05/02 02:15:58;;;;;;;5.55;2.65;;;;;;;;;;5071705;28;20484;-49
2022/05/02 02:18:24;;;;;;;4.38;3.05;;;;;;;;;;5067752;28;20054;-50
2022/05/02 02:20:52;;;;;;;4.28;2.78;;;;;;;;;;5072621;28;20548;-47
2022/05/02 02:23:18;;;;;;;5.13;2.97;;;;;;;;;;5067648;28;20040;-48
2022/05/02 02:25:44;;;;;;;4.28;2.80;;;;;;;;;;5072995;28;20104;-48
2022/05/02 02:28:10;;;;;;;5.53;2.88;;;;;;;;;;5090264;28;20043;-48
2022/05/02 02:30:36;;;;;;;6.60;3.17;;;;;;;;;;5057574;28;20060;-49
2022/05/02 02:33:02;;;;;;;3.72;2.45;;;;;;;;;;5062544;28;20092;-51
2022/05/02 02:35:29;;;;;;;5.68;3.17;;;;;;;;;;5065883;28;20032;-50
2022/05/02 02:37:55;;;;;;;8.05;2.78;;;;;;;;;;5071297;28;20077;-47
2022/05/02 02:40:21;;;;;;;6.82;3.28;;;;;;;;;;5067323;28;20025;-50
2022/05/02 02:42:47;;;;;;;5.43;2.92;;;;;;;;;;5070133;28;20035;-51
2022/05/02 02:45:13;;;;;;;4.90;3.13;;;;;;;;;;5065317;28;20604;-50
2022/05/02 02:47:39;;;;;;;4.60;3.10;;;;;;;;;;5072476;28;20021;-51
2022/05/02 02:50:06;;;;;;;8.40;3.22;;;;;;;;;;5071447;28;20087;-51
2022/05/02 02:52:32;;;;;;;6.13;2.83;;;;;;;;;;5070379;28;20048;-51
2022/05/02 02:54:58;;;;;;;4.43;3.05;;;;;;;;;;5071544;28;20029;-49
2022/05/02 02:57:24;;;;;;;5.20;2.88;;;;;;;;;;5079930;28;20120;-48
2022/05/02 02:59:50;;;;;;;5.93;3.08;;;;;;;;;;5076462;28;20066;-49
2022/05/02 03:02:16;;;;;;;8.05;3.65;;;;;;;;;;5069609;28;20028;-50
2022/05/02 03:07:27;;;;;;;6.97;3.90;;;;;;;;;;5059315;28;20408;-47
2022/05/02 03:09:53;;;;;;;7.00;3.42;;;;;;;;;;5054871;28;20025;-48
2022/05/02 03:12:20;;;;;;;6.28;3.80;;;;;;;;;;5066423;28;20040;-50
2022/05/02 03:14:46;;;;;;;5.55;3.50;;;;;;;;;;5067102;28;20020;-50
2022/05/02 03:17:12;;;;;;;7.28;3.67;;;;;;;;;;5051139;28;20035;-47
2022/05/02 03:19:38;;;;;;;4.38;3.00;;;;;;;;;;5063992;28;20081;-47
2022/05/02 03:22:04;;;;;;;5.20;3.28;;;;;;;;;;5060073;28;20393;-52
2022/05/02 03:24:31;;;;;;;8.10;3.55;;;;;;;;;;5069867;28;20024;-49
2022/05/02 03:26:57;;;;;;;4.57;3.30;;;;;;;;;;5076813;28;20530;-52
2022/05/02 03:29:23;;;;;;;5.25;3.20;;;;;;;;;;5075311;28;20039;-49
2022/05/02 03:31:49;;;;;;;6.78;3.70;;;;;;;;;;5066759;28;20021;-52
2022/05/02 03:34:15;;;;;;;6.80;3.65;;;;;;;;;;5069440;28;20036;-52
2022/05/02 03:36:41;;;;;;;7.28;3.78;;;;;;;;;;5063743;28;20055;-50
2022/05/02 03:39:07;;;;;;;7.03;3.83;;;;;;;;;;5066104;28;20042;-49
2022/05/02 03:41:33;;;;;;;6.03;3.40;;;;;;;;;;5067979;28;20468;-50
2022/05/02 03:43:59;;;;;;;7.28;3.40;;;;;;;;;;5068161;28;20173;-48
2022/05/02 03:46:25;;;;;;;5.03;3.17;;;;;;;;;;5070314;28;20389;-49
2022/05/02 03:48:51;;;;;;;7.82;3.85;;;;;;;;;;5068878;28;20522;-48
2022/05/02 03:51:17;;;;;;;5.18;3.38;;;;;;;;;;5072396;28;20029;-46
2022/05/02 03:53:44;;;;;;;6.85;3.25;;;;;;;;;;5055625;28;20109;-50
2022/05/02 03:56:10;;;;;;;7.22;2.88;;;;;;;;;;5063045;28;20056;-47
2022/05/02 03:58:36;;;;;;;4.72;2.92;;;;;;;;;;5057474;28;20028;-51
2022/05/02 04:01:02;;;;;;;5.38;2.70;;;;;;;;;;5067563;28;20029;-50
2022/05/02 04:03:28;;;;;;;5.63;3.70;;;;;;;;;;5075875;28;20024;-46
2022/05/02 04:05:54;;;;;;;6.28;3.53;;;;;;;;;;5069919;28;20032;-47
2022/05/02 04:08:20;;;;;;;5.47;3.53;;;;;;;;;;5054716;28;20124;-47
2022/05/02 04:10:46;;;;;;;5.43;3.20;;;;;;;;;;5050452;28;20040;-47
2022/05/02 04:13:12;;;;;;;4.85;3.22;;;;;;;;;;5063814;28;20120;-47
2022/05/02 04:15:38;;;;;;;4.40;2.95;;;;;;;;;;5068834;28;20388;-51
2022/05/02 04:18:04;;;;;;;5.20;3.33;;;;;;;;;;5070692;28;20120;-50
2022/05/02 04:20:30;;;;;;;7.97;3.60;;;;;;;;;;5069061;28;20072;-52
2022/05/02 04:22:56;;;;;;;6.05;3.85;;;;;;;;;;5066664;28;20056;-52
2022/05/02 04:25:22;;;;;;;8.70;3.35;;;;;;;;;;5057192;28;20052;-51
2022/05/02 04:27:48;;;;;;;5.35;3.45;;;;;;;;;;5073039;28;20040;-48
2022/05/02 04:30:14;;;;;;;6.18;3.78;;;;;;;;;;5075531;28;20029;-50
2022/05/02 04:32:40;;;;;;;5.15;3.15;;;;;;;;;;5082901;28;20031;-50
2022/05/02 04:35:07;;;;;;;6.93;3.63;;;;;;;;;;5062977;28;20564;-47
2022/05/02 04:37:33;;;;;;;6.88;3.28;;;;;;;;;;5061611;28;20427;-49
2022/05/02 04:39:59;;;;;;;8.50;3.40;;;;;;;;;;5058925;28;20017;-51
2022/05/02 04:42:25;;;;;;;5.93;3.90;;;;;;;;;;5055820;28;20033;-48
2022/05/02 04:44:51;;;;;;;6.55;3.40;;;;;;;;;;5060922;28;20025;-50
2022/05/02 04:47:17;;;;;;;6.07;3.45;;;;;;;;;;5062418;28;20099;-48
2022/05/02 04:49:43;;;;;;;8.65;3.60;;;;;;;;;;5054916;28;20515;-50
2022/05/02 04:52:09;;;;;;;7.10;3.60;;;;;;;;;;5066531;28;20409;-51
2022/05/02 04:54:35;;;;;;;10.95;4.13;;;;;;;;;;5064452;28;20024;-52
2022/05/02 04:57:01;;;;;;;7.28;3.67;;;;;;;;;;5059636;28;20704;-52
2022/05/02 04:59:27;;;;;;;6.00;3.50;;;;;;;;;;5059044;28;20025;-50
2022/05/02 05:01:53;;;;;;;5.53;3.53;;;;;;;;;;5053643;28;20037;-48
2022/05/02 05:04:19;;;;;;;7.88;4.00;;;;;;;;;;5060292;28;20017;-46
2022/05/02 05:06:45;;;;;;;7.05;4.03;;;;;;;;;;5066123;28;20028;-48
2022/05/02 05:09:11;;;;;;;6.45;4.13;;;;;;;;;;5070958;28;20032;-47
2022/05/02 05:11:37;;;;;;;6.43;3.83;;;;;;;;;;5057635;28;20037;-49
2022/05/02 05:17:17;;;;;;;5.78;3.65;;;;;;;;;;5055840;28;20122;-47
2022/05/02 05:19:48;;;;;;;8.77;4.18;;;;;;;;;;5083116;28;20154;-47
2022/05/02 05:22:21;;;;;;;5.07;3.35;;;;;;;;;;5065338;28;20108;-46
2022/05/02 05:24:58;;;;;;;7.93;4.35;;;;;;;;;;5061306;28;20021;-50
2022/05/02 05:27:36;;;;;;;5.22;3.85;;;;;;;;;;5071485;28;20028;-47
2022/05/02 05:30:03;;;;;;;6.80;4.15;;;;;;;;;;5065896;28;20487;-51
2022/05/02 05:32:52;;;;;;;9.40;4.72;;;;;;;;;;5071421;28;20032;-48
2022/05/02 05:35:23;;;;;;;6.97;4.50;;;;;;;;;;5062107;28;20087;-49
2022/05/02 05:38:00;;;;;;;8.10;4.13;;;;;;;;;;5054749;28;20039;-50
2022/05/02 05:40:37;;;;;;;7.68;4.47;;;;;;;;;;5063866;28;20052;-51
2022/05/02 05:43:15;;;;;;;5.05;3.70;;;;;;;;;;5066805;28;20107;-50
2022/05/02 05:46:00;;;;;;;7.40;3.25;;;;;;;;;;5057279;28;20024;-49
2022/05/02 05:48:31;;;;;;;5.75;3.58;;;;;;;;;;5068095;28;20028;-47
2022/05/02 05:51:12;;;;;;;5.95;4.18;;;;;;;;;;5077102;28;20025;-47
2022/05/02 05:53:53;;;;;;;7.03;4.72;;;;;;;;;;5059383;28;20029;-50
2022/05/02 05:56:34;;;;;;;7.53;4.50;;;;;;;;;;5064761;28;20037;-51
2022/05/02 05:59:03;;;;;;;7.70;4.32;;;;;;;;;;5054973;28;20554;-48
2022/05/02 06:01:37;;;;;;;9.45;4.45;;;;;;;;;;5050167;28;20120;-48
2022/05/02 06:04:04;;;;;;;6.10;3.50;;;;;;;;;;5069610;28;20021;-47
2022/05/02 06:06:31;;;;;;;15.07;5.47;;;;;;;;;;5063538;28;20054;-47
2022/05/02 06:08:58;;;;;;;15.98;3.75;;;;;;;;;;5086120;28;20024;-50
2022/05/02 06:11:25;;;;;;;8.75;4.30;;;;;;;;;;5083762;28;20027;-49
2022/05/02 06:13:53;;;;;;;7.25;4.75;;;;;;;;;;5067926;28;20025;-52
2022/05/02 06:19:06;;;;;;;7.90;3.80;;;;;;;;;;5070689;28;20066;-49
2022/05/02 06:21:33;;;;;;;7.65;3.70;;;;;;;;;;5084002;28;20052;-50
2022/05/02 06:24:00;;;;;;;9.27;4.35;;;;;;;;;;5072541;28;20420;-47
2022/05/02 06:26:26;;;;;;;8.10;4.30;;;;;;;;;;5082753;28;20051;-47
2022/05/02 06:28:52;;;;;;;8.40;4.00;;;;;;;;;;5077932;28;20035;-51
2022/05/02 06:31:20;;;;;;;10.75;3.78;;;;;;;;;;5080755;28;20028;-49
2022/05/02 06:33:48;;;;;;;5.75;3.88;;;;;;;;;;5078830;28;20058;-51
2022/05/02 06:36:30;;;;;;;10.32;4.95;;;;;;;;;;5079573;28;20032;-52
2022/05/02 06:39:00;;;;;;;10.38;4.65;;;;;;;;;;5076551;28;20095;-51
2022/05/02 06:41:35;;;;;;;10.95;4.75;;;;;;;;;;5069592;28;20057;-49
2022/05/02 06:44:10;;;;;;;10.57;4.68;;;;;;;;;;5079729;28;20480;-46
2022/05/02 06:46:47;;;;;;;9.27;4.50;;;;;;;;;;5073292;28;20488;-49
2022/05/02 06:49:13;;;;;;;16.02;5.35;;;;;;;;;;5058852;28;20373;-48
2022/05/02 06:51:42;;;;;;;8.32;4.05;;;;;;;;;;5047121;28;20051;-50
2022/05/02 06:54:26;;;;;;;9.48;3.90;;;;;;;;;;5068649;28;20055;-51
2022/05/02 06:56:57;;;;;;;3.92;2.60;;;;;;;;;;5067728;28;20028;-48
2022/05/02 06:59:26;;;;;;;5.43;3.33;;;;;;;;;;5070371;28;20032;-47
2022/05/02 07:01:58;;;;;;;5.72;3.20;;;;;;;;;;5073127;28;20035;-48
2022/05/02 07:04:33;;;;;;;8.40;3.15;;;;;;;;;;5075733;28;20096;-50
2022/05/02 07:07:18;;;;;;;7.63;2.97;;;;;;;;;;5080715;28;20537;-49
2022/05/02 07:09:45;;;;;;;7.65;3.00;;;;;;;;;;5071841;28;20539;-50
2022/05/02 07:12:17;;;;;;;6.05;3.40;;;;;;;;;;5079235;28;20131;-47
2022/05/02 07:14:59;;;;;;;6.25;2.90;;;;;;;;;;5083726;28;20051;-50
2022/05/02 07:17:45;;;;;;;7.10;3.20;;;;;;;;;;5058065;28;20033;-50
2022/05/02 07:20:18;;;;;;;5.47;3.33;;;;;;;;;;5067132;28;20479;-48
2022/05/02 07:22:44;;;;;;;6.45;2.97;;;;;;;;;;5059255;28;20043;-49
2022/05/02 07:25:11;;;;;;;4.32;2.10;;;;;;;;;;5059379;28;20073;-49
2022/05/02 07:27:45;;;;;;;4.68;2.75;;;;;;;;;;5067661;28;20032;-49
2022/05/02 07:30:11;;;;;;;5.47;2.83;;;;;;;;;;5069129;28;20047;-50
2022/05/02 07:32:37;;;;;;;4.93;2.30;;;;;;;;;;5088871;28;20028;-46
2022/05/02 07:35:03;;;;;;;7.32;3.13;;;;;;;;;;5090113;28;20074;-50
2022/05/02 07:37:32;;;;;;;8.10;2.40;;;;;;;;;;5073053;28;20105;-49
2022/05/02 07:39:58;;;;;;;8.68;2.97;;;;;;;;;;5082155;28;20143;-49
2022/05/02 07:42:25;;;;;;;7.72;2.42;;;;;;;;;;5083026;28;20474;-52
2022/05/02 07:44:55;;;;;;;5.50;2.67;;;;;;;;;;5078995;28;20491;-48
2022/05/02 07:47:22;;;;;;;5.80;2.90;;;;;;;;;;5072984;28;20028;-50
2022/05/02 07:49:49;;;;;;;5.53;2.40;;;;;;;;;;5086716;28;20364;-56
2022/05/02 07:52:16;;;;;;;5.68;2.47;;;;;;;;;;5052810;28;20045;-47
2022/05/02 07:54:43;;;;;;;6.20;2.38;;;;;;;;;;5063249;28;20031;-51
2022/05/02 07:57:09;;;;;;;6.15;2.08;;;;;;;;;;5066330;28;20021;-50
2022/05/02 07:59:42;;;;;;;3.90;2.05;;;;;;;;;;5075998;28;20040;-50
2022/05/02 08:02:08;;;;;;;3.90;2.58;;;;;;;;;;5073738;28;20111;-52
2022/05/02 08:04:37;;;;;;;6.82;2.60;;;;;;;;;;5068230;28;20025;-49
2022/05/02 08:07:13;;;;;;;4.40;2.53;;;;;;;;;;5064885;28;20028;-49
2022/05/02 08:09:57;;;;;;;5.38;2.55;;;;;;;;;;5059066;28;20577;-51
2022/05/02 08:12:28;;;;;;;6.65;3.15;;;;;;;;;;5053459;28;20032;-47
2022/05/02 08:15:03;;;;;;;5.78;2.55;;;;;;;;;;5060246;28;20396;-49
2022/05/02 08:17:47;;;;;;;8.95;2.70;;;;;;;;;;5068189;28;20039;-49
2022/05/02 08:20:39;;;;;;;6.00;2.58;;;;;;;;;;5066938;28;20024;-48
2022/05/02 08:29:06;;;;;;;6.63;2.78;;;;;;;;;;5064807;28;20445;-49
2022/05/02 08:31:51;;;;;;;4.55;2.35;;;;;;;;;;5074728;28;20539;-48
2022/05/02 08:34:20;;;;;;;4.40;2.38;;;;;;;;;;5082199;28;20030;-50
2022/05/02 08:36:55;;;;;;;4.70;2.35;;;;;;;;;;5064632;28;20032;-48
2022/05/02 08:39:26;;;;;;;4.20;1.92;;;;;;;;;;5069765;28;20675;-47
2022/05/02 08:41:58;;;;;;;5.72;2.42;;;;;;;;;;5061972;28;20025;-51
2022/05/02 08:44:42;;;;;;;4.65;2.20;;;;;;;;;;5072707;28;20075;-51
2022/05/02 08:47:27;;;;;;;2.35;1.67;;;;;;;;;;5071727;28;20549;-47
2022/05/02 08:50:05;;;;;;;3.33;1.70;;;;;;;;;;5071926;28;20468;-50
2022/05/02 08:52:50;;;;;;;3.47;1.90;;;;;;;;;;5076063;28;20050;-49
2022/05/02 08:55:35;;;;;;;3.20;2.03;;;;;;;;;;5059747;28;20052;-50
2022/05/02 08:58:12;;;;;;;4.13;2.28;;;;;;;;;;5068873;28;20033;-51
2022/05/02 09:01:00;;;;;;;6.25;2.38;;;;;;;;;;5062091;28;20831;-49
2022/05/02 09:03:26;;;;;;;6.00;2.50;;;;;;;;;;5063375;28;20115;-47
2022/05/02 09:06:11;;;;;;;3.47;2.13;;;;;;;;;;5055281;28;20029;-49
2022/05/02 09:08:46;;;;;;;9.25;2.10;;;;;;;;;;5078833;28;20066;-48
2022/05/02 09:11:33;;;;;;;3.78;1.70;;;;;;;;;;5067341;28;20115;-49
2022/05/02 09:14:20;;;;;;;3.60;1.90;;;;;;;;;;5070597;28;20027;-50
2022/05/02 09:16:52;;;;;;;4.35;2.20;;;;;;;;;;5061096;28;20063;-46
2022/05/02 09:19:37;;;;;;;8.13;2.38;;;;;;;;;;5056531;28;20075;-51
2022/05/02 09:22:17;;;;;;;2.97;1.83;;;;;;;;;;5063885;28;20018;-50
2022/05/02 09:25:00;;;;;;;4.43;1.98;;;;;;;;;;5068920;28;20028;-50
2022/05/02 09:27:32;;;;;;;5.28;2.08;;;;;;;;;;5063877;28;20051;-48
2022/05/02 09:30:17;;;;;;;3.83;2.00;;;;;;;;;;5063472;28;20119;-47
2022/05/02 09:32:52;;;;;;;3.70;2.28;;;;;;;;;;5062531;28;20032;-50
2022/05/02 09:35:26;;;;;;;8.38;2.60;;;;;;;;;;5059210;28;20055;-48
2022/05/02 09:37:56;;;;;;;6.28;1.92;;;;;;;;;;5064774;28;20037;-49
2022/05/02 09:40:29;;;;;;;5.18;2.50;;;;;;;;;;5071097;28;20028;-49
2022/05/02 09:42:55;;;;;;;;;;;;;;;;;;5066257;28;20032;-50
2022/05/02 09:51:38;;;;;;;3.95;2.10;;;;;;;;;;5060543;28;20487;-49
2022/05/02 09:57:16;;;;;;;4.07;2.40;;;;;;;;;;5024936;28;20037;-49
2022/05/02 09:59:42;;;;;;;;;;;;;;;;;;5069063;28;20017;-51
2022/05/02 10:02:17;;;;;;;5.20;2.35;;;;;;;;;;5056741;28;19916;-48
2022/05/02 10:05:03;;;;;;;4.10;2.17;;;;;;;;;;5077858;28;20024;-48
2022/05/02 10:07:29;;;;;;;6.00;2.38;;;;;;;;;;5065360;28;20116;-50
2022/05/02 10:09:55;;;;;;;4.53;2.28;;;;;;;;;;5067683;28;20446;-48
2022/05/02 10:12:25;;;;;;;4.70;2.13;;;;;;;;;;5062425;28;20013;-49
2022/05/02 10:14:51;;;;;;;4.68;2.38;;;;;;;;;;5069660;28;20033;-49
2022/05/02 10:17:40;;;;;;;3.92;2.25;;;;;;;;;;5077798;28;20402;-50
2022/05/02 10:20:16;;;;;;;6.38;2.60;;;;;;;;;;5034726;28;20044;-50
2022/05/02 10:22:47;;;;;;;5.15;2.70;;;;;;;;;;5069980;28;20035;-50
2022/05/02 10:25:16;;;;;;;3.20;2.15;;;;;;;;;;5069805;28;20100;-51
2022/05/02 10:28:00;;;;;;;4.43;2.47;;;;;;;;;;5055404;28;20040;-49
2022/05/02 10:30:29;;;;;;;4.53;2.17;;;;;;;;;;5085945;28;20028;-48
2022/05/02 10:32:56;;;;;;;3.53;2.33;;;;;;;;;;5083782;28;20028;-47
2022/05/02 10:35:26;;;;;;;6.40;2.50;;;;;;;;;;5088586;28;20543;-49
2022/05/02 10:37:52;;;;;;;4.78;1.75;;;;;;;;;;5063139;28;20032;-52
2022/05/02 10:40:24;;;;;;;4.45;2.50;;;;;;;;;;5071817;28;20036;-51
2022/05/02 10:42:52;;;;;;;11.85;2.28;;;;;;;;;;5070715;28;20028;-48
2022/05/02 10:45:18;;;;;;;3.15;1.67;;;;;;;;;;5062659;28;21004;-49
2022/05/02 10:47:53;;;;;;;2.50;1.70;;;;;;;;;;5061259;28;20024;-51
2022/05/02 10:50:21;;;;;;;4.00;1.77;;;;;;;;;;5087418;28;20036;-49
2022/05/02 10:52:46;;;;;;;2.97;1.90;;;;;;;;;;5077255;28;20106;-46
2022/05/02 10:55:16;;;;;;;5.15;2.05;;;;;;;;;;5065504;28;20028;-49
2022/05/02 10:57:46;;;;;;;4.47;1.80;;;;;;;;;;5075591;28;20032;-50
2022/05/02 11:00:12;;;;;;;3.30;1.88;;;;;;;;;;5065268;28;20025;-48
2022/05/02 11:02:57;;;;;;;4.00;1.70;;;;;;;;;;5081314;28;20031;-50
2022/05/02 11:05:28;;;;;;;2.25;1.80;;;;;;;;;;5086136;28;20025;-48
2022/05/02 11:07:55;;;;;;;6.45;1.98;;;;;;;;;;5074276;28;20399;-48
2022/05/02 11:10:22;;;;;;;5.97;1.90;;;;;;;;;;5058656;28;20093;-50
2022/05/02 11:12:54;;;;;;;3.90;2.40;;;;;;;;;;5069973;28;20053;-45
2022/05/02 11:15:25;;;;;;;3.83;1.65;;;;;;;;;;5067443;28;20518;-48
2022/05/02 11:18:07;;;;;;;4.30;1.60;;;;;;;;;;5064756;28;20025;-52
2022/05/02 11:20:46;;;;;;;5.45;2.08;;;;;;;;;;5077613;28;20054;-51
2022/05/02 11:23:31;;;;;;;3.97;1.90;;;;;;;;;;5064005;28;20560;-49
2022/05/02 11:26:12;;;;;;;4.28;2.00;;;;;;;;;;5073419;28;20138;-46
2022/05/02 11:28:44;;;;;;;3.00;1.30;;;;;;;;;;5073767;28;20043;-49
2022/05/02 11:31:28;;;;;;;3.33;1.30;;;;;;;;;;5072375;28;20475;-47
2022/05/02 11:34:02;;;;;;;8.02;2.00;;;;;;;;;;5062820;28;20429;-49
2022/05/02 11:36:32;;;;;;;3.05;1.75;;;;;;;;;;5067939;28;20123;-49
2022/05/02 11:39:05;;;;;;;5.15;2.20;;;;;;;;;;5062252;28;20016;-50
2022/05/02 11:41:32;;;;;;;3.92;1.45;;;;;;;;;;5074306;28;20541;-49
2022/05/02 11:44:12;;;;;;;3.05;1.70;;;;;;;;;;5069263;28;20108;-46
2022/05/02 11:46:46;;;;;;;4.15;1.75;;;;;;;;;;5054669;28;20071;-50
2022/05/02 11:49:18;;;;;;;2.50;1.60;;;;;;;;;;5079099;28;20028;-48
2022/05/02 11:51:44;;;;;;;3.85;2.00;;;;;;;;;;5071253;28;20045;-50
2022/05/02 11:54:19;;;;;;;6.95;1.70;;;;;;;;;;5064943;28;20085;-49
2022/05/02 11:57:13;;;;;;;3.83;1.83;;;;;;;;;;5055667;28;20078;-49
2022/05/02 11:59:55;;;;;;;4.97;1.92;;;;;;;;;;5072867;28;20400;-50
2022/05/02 12:02:40;;;;;;;2.92;1.80;;;;;;;;;;5062225;28;20031;-51
2022/05/02 12:05:18;;;;;;;8.40;2.15;;;;;;;;;;5062990;28;20587;-49
2022/05/02 12:07:49;;;;;;;4.53;2.13;;;;;;;;;;5077853;28;20043;-46
2022/05/02 12:10:16;;;;;;;3.80;2.00;;;;;;;;;;5077766;28;20036;-48
2022/05/02 12:12:49;;;;;;;3.33;1.52;;;;;;;;;;5079725;28;20105;-46
2022/05/02 12:15:16;;;;;;;2.65;1.60;;;;;;;;;;5064991;28;20032;-51
2022/05/02 12:17:52;;;;;;;6.15;2.20;;;;;;;;;;5090840;28;20543;-51
2022/05/02 12:20:25;;;;;;;5.30;2.00;;;;;;;;;;5062925;28;20055;-50
2022/05/02 12:22:56;;;;;;;4.70;2.00;;;;;;;;;;5071026;28;20575;-51
2022/05/02 12:25:23;;;;;;;3.67;2.10;;;;;;;;;;5059715;28;20028;-51
2022/05/02 12:27:50;;;;;;;2.05;1.63;;;;;;;;;;5069713;28;20286;-49
2022/05/02 12:30:17;;;;;;;2.83;1.45;;;;;;;;;;5064970;28;20534;-50
2022/05/02 12:32:45;;;;;;;1.88;1.42;;;;;;;;;;5079965;28;20113;-47
2022/05/02 12:35:12;;;;;;;3.88;1.58;;;;;;;;;;5061094;28;20197;-49
2022/05/02 12:37:39;;;;;;;3.53;1.50;;;;;;;;;;5072463;28;20028;-52
2022/05/02 12:40:08;;;;;;;3.65;1.83;;;;;;;;;;5059790;28;20013;-49
2022/05/02 12:42:44;;;;;;;2.55;1.65;;;;;;;;;;5073433;28;20392;-48
2022/05/02 12:45:11;;;;;;;2.58;1.35;;;;;;;;;;5072987;28;20100;-50
2022/05/02 12:47:42;;;;;;;2.38;1.50;;;;;;;;;;5088724;28;20471;-47
2022/05/02 12:50:12;;;;;;;2.45;1.50;;;;;;;;;;5090429;28;20028;-51
2022/05/02 12:52:46;;;;;;;3.83;1.52;;;;;;;;;;5071169;28;20055;-47
2022/05/02 12:55:13;;;;;;;3.55;1.52;;;;;;;;;;5088000;28;20035;-48
2022/05/02 13:00:32;;;;;;;3.45;1.60;;;;;;;;;;5077892;28;20036;-48
2022/05/02 13:03:17;;;;;;;3.38;1.45;;;;;;;;;;5075049;28;20066;-47
2022/05/02 13:05:46;;;;;;;4.60;1.50;;;;;;;;;;5089447;28;20027;-48
2022/05/02 13:08:14;;;;;;;5.57;1.35;;;;;;;;;;5059372;28;20057;-47
2022/05/02 13:10:40;;;;;;;2.35;1.40;;;;;;;;;;5056627;28;20554;-51
2022/05/02 13:13:07;;;;;;;2.83;1.27;;;;;;;;;;5072734;28;20028;-51
2022/05/02 13:15:43;;;;;;;2.88;1.30;;;;;;;;;;5065295;28;20114;-51
2022/05/02 13:18:12;;;;;;;3.63;1.30;;;;;;;;;;5064475;28;20031;-48
2022/05/02 13:20:39;;;;;;;3.22;1.25;;;;;;;;;;5059915;28;20033;-49
2022/05/02 13:23:16;;;;;;;2.15;1.08;;;;;;;;;;5076942;28;20477;-49
2022/05/02 13:25:53;;;;;;;2.47;1.40;;;;;;;;;;5056495;28;20017;-48
2022/05/02 13:28:25;;;;;;;3.55;1.60;;;;;;;;;;5057571;28;20028;-51
2022/05/02 13:30:58;;;;;;;2.40;1.38;;;;;;;;;;5058642;28;20032;-48
2022/05/02 13:33:34;;;;;;;2.30;1.02;;;;;;;;;;5067004;28;20443;-49
2022/05/02 13:36:05;;;;;;;4.90;1.33;;;;;;;;;;5059891;28;20400;-47
2022/05/02 13:38:35;;;;;;;3.90;1.25;;;;;;;;;;5053855;28;20540;-48
2022/05/02 13:41:13;;;;;;;3.30;1.10;;;;;;;;;;5077133;28;20111;-48
2022/05/02 13:44:03;;;;;;;3.80;1.30;;;;;;;;;;5063577;28;20510;-49
2022/05/02 13:46:42;;;;;;;4.07;1.40;;;;;;;;;;5054147;28;20067;-50
2022/05/02 13:49:10;;;;;;;4.03;1.15;;;;;;;;;;5061126;28;20392;-51
2022/05/02 13:51:38;;;;;;;2.17;1.15;;;;;;;;;;5059565;28;20042;-50
2022/05/02 13:54:11;;;;;;;4.07;1.33;;;;;;;;;;5073179;28;20021;-47
2022/05/02 13:57:02;;;;;;;2.47;1.25;;;;;;;;;;5078721;28;20024;-51
2022/05/02 13:59:37;;;;;;;2.88;1.10;;;;;;;;;;5057244;28;20090;-50
2022/05/02 14:02:11;;;;;;;2.78;1.20;;;;;;;;;;5080816;28;20032;-52
2022/05/02 14:04:40;;;;;;;3.63;1.33;;;;;;;;;;5089595;28;20418;-52
2022/05/02 14:07:14;;;;;;;3.05;1.42;;;;;;;;;;5070356;28;20051;-51
2022/05/02 14:09:41;;;;;;;3.45;1.27;;;;;;;;;;5066624;28;20473;-50
2022/05/02 14:12:10;;;;;;;2.17;1.52;;;;;;;;;;5056940;28;20021;-50
2022/05/02 14:14:54;;;;;;;3.58;1.30;;;;;;;;;;5064143;28;20111;-52
2022/05/02 14:17:26;;;;;;;4.60;1.23;;;;;;;;;;5059781;28;20446;-49
2022/05/02 14:19:53;;;;;;;2.75;1.35;;;;;;;;;;5060929;28;20155;-49
2022/05/02 14:22:33;;;;;;;1.88;1.48;;;;;;;;;;5051288;28;20029;-50
2022/05/02 14:24:59;;;;;;;1.92;1.08;;;;;;;;;;5052732;28;20033;-51
2022/05/02 14:27:25;;;;;;;2.53;1.30;;;;;;;;;;5049206;28;20064;-48
2022/05/02 14:30:01;;;;;;;3.58;1.48;;;;;;;;;;5048455;28;20025;-49
2022/05/02 14:32:39;;;;;;;2.30;1.17;;;;;;;;;;5067112;28;20484;-49
2022/05/02 14:35:06;;;;;;;4.28;1.27;;;;;;;;;;5075820;28;20017;-50
2022/05/02 14:37:32;;;;;;;2.80;1.38;;;;;;;;;;5083046;28;20111;-51
2022/05/02 14:39:59;;;;;;;1.90;0.93;;;;;;;;;;5089447;28;20660;-48
2022/05/02 14:42:26;;;;;;;2.88;1.17;;;;;;;;;;5067011;28;20688;-49
2022/05/02 14:44:53;;;;;;;2.30;1.13;;;;;;;;;;5064880;28;20033;-48
2022/05/02 14:47:19;;;;;;;1.52;0.90;;;;;;;;;;5055947;28;20028;-47
2022/05/02 14:49:45;;;;;;;2.85;1.13;;;;;;;;;;5065032;28;20024;-47
2022/05/02 14:52:18;;;;;;;3.97;1.38;;;;;;;;;;5087965;28;20040;-47
2022/05/02 14:54:45;;;;;;;1.90;1.17;;;;;;;;;;5072383;28;20109;-46
2022/05/02 14:57:13;;;;;;;2.60;1.48;;;;;;;;;;5082395;28;20445;-49
2022/05/02 14:59:41;;;;;;;1.85;0.90;;;;;;;;;;5082893;28;20400;-49
2022/05/02 15:02:08;;;;;;;3.38;1.08;;;;;;;;;;5077665;28;20081;-48
2022/05/02 15:04:39;;;;;;;4.72;1.35;;;;;;;;;;5091841;28;20080;-48
2022/05/02 15:07:07;;;;;;;2.20;1.10;;;;;;;;;;5057519;28;20028;-47
2022/05/02 15:12:50;;;;;;;3.92;1.75;;;;;;;;;;5056399;28;20523;-49
2022/05/02 15:15:30;;;;;;;3.13;1.27;;;;;;;;;;5053971;28;20507;-48
2022/05/02 15:18:09;;;;;;;4.82;1.17;;;;;;;;;;5064111;28;20071;-46
2022/05/02 15:20:40;;;;;;;2.80;1.30;;;;;;;;;;5061504;28;20411;-51
2022/05/02 15:23:08;;;;;;;4.32;1.58;;;;;;;;;;5056409;28;20028;-48
2022/05/02 15:25:34;;;;;;;1.98;1.20;;;;;;;;;;5061985;28;20017;-47
2022/05/02 15:36:40;;;;;;;3.85;1.73;;;;;;;;;;5066653;28;20042;-51
2022/05/02 15:39:14;;;;;;;3.45;1.42;;;;;;;;;;5089400;28;20055;-48
2022/05/02 15:41:40;;;;;;;3.60;1.58;;;;;;;;;;5081257;28;20556;-51